createdAt,value
2023-02-19T00:00:35.515Z,4.70
2023-02-19T00:03:21.046Z,4.40
2023-02-19T00:06:09.309Z,5.90
2023-02-19T00:08:55.049Z,5.72
2023-02-19T00:11:41.671Z,5.30
2023-02-19T00:14:27.165Z,4.78
2023-02-19T00:17:12.700Z,2.90
2023-02-19T00:19:58.162Z,4.57
2023-02-19T00:22:43.510Z,3.88
2023-02-19T00:25:29.477Z,4.30
2023-02-19T00:28:15.027Z,4.75
2023-02-19T00:31:08.485Z,4.15
2023-02-19T00:33:57.937Z,4.47
2023-02-19T00:36:44.012Z,4.13
2023-02-19T00:39:29.343Z,4.88
2023-02-19T00:42:14.756Z,4.35
2023-02-19T00:45:00.324Z,6.82
2023-02-19T00:47:45.694Z,4.70
2023-02-19T00:50:31.051Z,4.32
2023-02-19T00:53:16.498Z,5.03
2023-02-19T00:56:02.071Z,4.10
2023-02-19T00:58:48.074Z,5.28
2023-02-19T01:01:34.120Z,5.88
2023-02-19T01:04:19.802Z,5.18
2023-02-19T01:07:05.701Z,5.82
2023-02-19T01:09:51.436Z,4.07
2023-02-19T01:12:37.026Z,4.90
2023-02-19T01:15:22.499Z,4.38
2023-02-19T01:18:08.003Z,4.95
2023-02-19T01:20:53.640Z,4.80
2023-02-19T01:23:39.315Z,4.95
2023-02-19T01:26:30.424Z,7.65
2023-02-19T01:29:15.787Z,4.70
2023-02-19T01:32:01.586Z,5.05
2023-02-19T01:34:47.319Z,5.40
2023-02-19T01:37:32.732Z,3.75
2023-02-19T01:40:18.172Z,6.10
2023-02-19T01:43:03.766Z,4.78
2023-02-19T01:45:49.939Z,5.03
2023-02-19T01:48:39.445Z,3.45
2023-02-19T01:51:25.001Z,5.90
2023-02-19T01:54:12.574Z,6.25
2023-02-19T01:56:59.250Z,5.55
2023-02-19T01:59:46.238Z,4.45
2023-02-19T02:02:32.038Z,7.28
2023-02-19T02:05:31.535Z,5.95
2023-02-19T02:08:36.912Z,4.80
2023-02-19T02:11:23.139Z,6.85
2023-02-19T02:14:08.784Z,6.35
2023-02-19T02:17:13.216Z,7.07
2023-02-19T02:20:17.838Z,6.28
2023-02-19T02:23:09.698Z,6.50
2023-02-19T02:26:17.046Z,7.03
2023-02-19T02:29:24.168Z,5.85
2023-02-19T02:32:13.668Z,6.85
2023-02-19T02:35:03.648Z,6.07
2023-02-19T02:37:49.859Z,8.73
2023-02-19T02:40:36.019Z,14.80
2023-02-19T02:43:21.499Z,14.52
2023-02-19T02:46:09.800Z,12.93
2023-02-19T02:49:02.171Z,23.80
2023-02-19T02:51:51.230Z,32.78
2023-02-19T02:55:00.624Z,35.75
2023-02-19T02:57:47.409Z,33.33
2023-02-19T03:00:53.038Z,31.55
2023-02-19T03:03:39.807Z,28.45
2023-02-19T03:06:26.824Z,20.35
2023-02-19T03:09:34.483Z,16.92
2023-02-19T03:12:39.756Z,27.17
2023-02-19T03:15:47.197Z,17.25
2023-02-19T03:18:52.445Z,15.30
2023-02-19T03:21:39.780Z,13.68
2023-02-19T03:24:50.048Z,12.95
2023-02-19T03:27:36.535Z,14.13
2023-02-19T03:30:25.937Z,13.70
2023-02-19T03:33:16.404Z,10.40
2023-02-19T03:36:06.668Z,12.00
2023-02-19T03:39:14.006Z,11.40
2023-02-19T03:42:06.195Z,9.48
2023-02-19T03:45:01.191Z,11.07
2023-02-19T03:47:58.351Z,9.23
2023-02-19T03:50:44.251Z,8.23
2023-02-19T03:53:35.776Z,8.23
2023-02-19T03:56:55.664Z,9.70
2023-02-19T03:59:47.433Z,7.88
2023-02-19T04:02:57.283Z,7.97
2023-02-19T04:05:58.556Z,8.65
2023-02-19T04:08:48.630Z,9.00
2023-02-19T04:11:36.885Z,8.40
2023-02-19T04:14:32.873Z,7.60
2023-02-19T04:17:44.086Z,7.47
2023-02-19T04:20:32.840Z,7.97
2023-02-19T04:23:21.364Z,6.72
2023-02-19T04:26:08.158Z,7.15
2023-02-19T04:28:54.327Z,8.13
2023-02-19T04:31:40.000Z,8.98
2023-02-19T04:34:25.822Z,7.05
2023-02-19T04:37:11.867Z,9.68
2023-02-19T04:39:57.453Z,9.10
2023-02-19T04:42:43.385Z,8.40
2023-02-19T04:45:29.107Z,8.80
2023-02-19T04:48:15.239Z,15.93
2023-02-19T04:51:05.580Z,11.73
2023-02-19T04:53:51.119Z,10.68
2023-02-19T04:56:36.272Z,18.13
2023-02-19T04:59:21.839Z,11.88
2023-02-19T05:02:07.626Z,14.65
2023-02-19T05:04:53.001Z,11.23
2023-02-19T05:07:38.434Z,15.80
2023-02-19T05:10:23.986Z,18.85
2023-02-19T05:13:09.501Z,13.32
2023-02-19T05:16:00.295Z,11.88
2023-02-19T05:18:46.807Z,13.30
2023-02-19T05:21:32.519Z,12.77
2023-02-19T05:24:18.288Z,16.00
2023-02-19T05:27:04.110Z,12.38
2023-02-19T05:29:49.868Z,11.70
2023-02-19T05:32:35.888Z,12.40
2023-02-19T05:35:21.303Z,10.52
2023-02-19T05:38:08.136Z,14.88
2023-02-19T05:40:54.310Z,10.20
2023-02-19T05:43:41.167Z,10.80
2023-02-19T05:46:32.415Z,10.88
2023-02-19T05:49:17.881Z,10.75
2023-02-19T05:52:04.026Z,12.23
2023-02-19T05:54:49.858Z,13.18
2023-02-19T05:57:43.612Z,16.42
2023-02-19T06:00:29.781Z,20.63
2023-02-19T06:03:15.100Z,14.05
2023-02-19T06:06:00.649Z,16.95
2023-02-19T06:08:47.515Z,13.13
2023-02-19T06:11:34.137Z,15.15
2023-02-19T06:14:21.112Z,12.13
2023-02-19T06:17:06.590Z,17.02
2023-02-19T06:19:52.496Z,13.30
2023-02-19T06:22:37.979Z,11.15
2023-02-19T06:25:23.336Z,11.60
2023-02-19T06:28:10.585Z,12.68
2023-02-19T06:30:58.654Z,11.35
2023-02-19T06:33:44.448Z,12.90
2023-02-19T06:36:31.278Z,11.60
2023-02-19T06:39:17.437Z,13.07
2023-02-19T06:42:03.322Z,18.42
2023-02-19T06:44:49.126Z,11.68
2023-02-19T06:47:34.721Z,8.88
2023-02-19T06:50:20.100Z,12.00
2023-02-19T06:53:05.965Z,11.90
2023-02-19T06:56:20.032Z,12.02
2023-02-19T06:59:11.660Z,10.85
2023-02-19T07:01:57.135Z,11.00
2023-02-19T07:04:42.502Z,12.23
2023-02-19T07:07:27.805Z,12.00
2023-02-19T07:10:13.593Z,12.93
2023-02-19T07:12:59.103Z,15.50
2023-02-19T07:15:44.484Z,11.63
2023-02-19T07:18:30.149Z,12.43
2023-02-19T07:21:16.602Z,11.50
2023-02-19T07:24:02.007Z,10.90
2023-02-19T07:26:47.379Z,10.32
2023-02-19T07:29:32.846Z,12.98
2023-02-19T07:32:18.289Z,9.73
2023-02-19T07:35:04.063Z,11.65
2023-02-19T07:37:49.750Z,11.68
2023-02-19T07:40:35.914Z,14.80
2023-02-19T07:43:22.850Z,11.77
2023-02-19T07:46:11.260Z,12.00
2023-02-19T07:48:56.981Z,11.85
2023-02-19T07:51:43.821Z,10.45
2023-02-19T07:54:29.636Z,11.13
2023-02-19T07:57:15.229Z,10.93
2023-02-19T08:00:00.642Z,11.90
2023-02-19T08:03:01.227Z,10.70
2023-02-19T08:05:46.918Z,13.18
2023-02-19T08:08:32.185Z,11.07
2023-02-19T08:11:36.144Z,12.38
2023-02-19T08:14:28.407Z,11.52
2023-02-19T08:17:14.030Z,11.43
2023-02-19T08:19:59.246Z,11.32
2023-02-19T08:22:44.707Z,11.95
2023-02-19T08:25:30.389Z,16.30
2023-02-19T08:28:17.152Z,11.35
2023-02-19T08:31:05.347Z,11.70
2023-02-19T08:33:50.982Z,12.52
2023-02-19T08:36:36.390Z,9.68
2023-02-19T08:39:21.861Z,12.98
2023-02-19T08:42:07.767Z,15.20
2023-02-19T08:44:53.296Z,11.32
2023-02-19T08:47:39.979Z,10.93
2023-02-19T08:50:26.400Z,10.10
2023-02-19T08:53:12.211Z,11.32
2023-02-19T08:55:58.092Z,12.90
2023-02-19T08:58:45.364Z,13.68
2023-02-19T09:01:31.146Z,12.70
2023-02-19T09:04:16.992Z,6.47
2023-02-19T09:07:02.956Z,11.43
2023-02-19T09:09:48.520Z,10.35
2023-02-19T09:12:34.368Z,9.73
2023-02-19T09:15:19.812Z,12.40
2023-02-19T09:18:05.178Z,15.90
2023-02-19T09:20:50.837Z,11.45
2023-02-19T09:23:36.563Z,12.32
2023-02-19T09:26:22.098Z,12.35
2023-02-19T09:29:07.892Z,11.07
2023-02-19T09:32:00.478Z,10.50
2023-02-19T09:34:46.211Z,9.93
2023-02-19T09:37:34.035Z,7.57
2023-02-19T09:40:21.764Z,12.88
2023-02-19T09:43:16.900Z,15.00
2023-02-19T09:46:24.180Z,9.38
2023-02-19T09:49:16.017Z,7.88
2023-02-19T09:52:20.049Z,6.60
2023-02-19T09:55:38.017Z,9.38
2023-02-19T09:58:35.075Z,5.38
2023-02-19T10:01:22.280Z,10.30
2023-02-19T10:04:10.234Z,10.20
2023-02-19T10:07:00.720Z,10.00
2023-02-19T10:09:50.975Z,13.88
2023-02-19T10:12:36.549Z,11.18
2023-02-19T10:16:00.577Z,9.95
2023-02-19T10:18:46.861Z,4.00
2023-02-19T10:21:32.886Z,7.75
2023-02-19T10:24:26.099Z,4.97
2023-02-19T10:27:15.172Z,6.47
2023-02-19T10:30:01.323Z,8.45
2023-02-19T10:33:04.139Z,6.65
2023-02-19T10:35:54.753Z,7.65
2023-02-19T10:38:46.010Z,4.32
2023-02-19T10:41:31.940Z,9.52
2023-02-19T10:44:27.481Z,8.82
2023-02-19T10:47:22.351Z,5.93
2023-02-19T10:50:20.910Z,2.95
2023-02-19T10:53:06.502Z,6.82
2023-02-19T10:56:09.916Z,8.75
2023-02-19T10:58:55.506Z,11.40
2023-02-19T11:01:54.826Z,8.52
2023-02-19T11:04:40.769Z,11.38
2023-02-19T11:07:26.595Z,5.10
2023-02-19T11:10:28.382Z,4.07
2023-02-19T11:13:18.477Z,4.57
2023-02-19T11:16:04.294Z,2.88
2023-02-19T11:18:57.252Z,9.65
2023-02-19T11:21:43.005Z,5.55
2023-02-19T11:24:33.901Z,5.72
2023-02-19T11:27:22.062Z,5.00
2023-02-19T11:30:26.620Z,4.50
2023-02-19T11:33:22.713Z,9.43
2023-02-19T11:36:23.492Z,4.43
2023-02-19T11:39:18.098Z,7.82
2023-02-19T11:42:06.437Z,5.13
2023-02-19T11:45:16.897Z,7.55
2023-02-19T11:48:02.473Z,4.85
2023-02-19T11:51:20.265Z,6.35
2023-02-19T11:54:09.078Z,6.65
2023-02-19T11:57:08.441Z,6.95
2023-02-19T12:00:19.918Z,6.70
2023-02-19T12:03:43.085Z,7.97
2023-02-19T12:06:28.486Z,8.65
2023-02-19T12:09:45.215Z,9.68
2023-02-19T12:13:01.751Z,7.35
2023-02-19T12:16:04.077Z,5.65
2023-02-19T12:19:08.480Z,6.28
2023-02-19T12:22:16.497Z,4.32
2023-02-19T12:25:23.744Z,6.18
2023-02-19T12:28:27.472Z,7.85
2023-02-19T12:31:28.261Z,6.88
2023-02-19T12:34:30.812Z,2.58
2023-02-19T12:37:23.104Z,3.38
2023-02-19T12:40:22.191Z,6.00
2023-02-19T12:43:19.509Z,3.78
2023-02-19T12:46:09.227Z,8.20
2023-02-19T12:49:00.583Z,6.43
2023-02-19T12:51:49.055Z,3.67
2023-02-19T12:54:38.639Z,5.82
2023-02-19T12:57:33.503Z,9.75
2023-02-19T13:00:42.077Z,8.63
2023-02-19T13:03:35.378Z,2.00
2023-02-19T13:06:33.035Z,6.47
2023-02-19T13:09:20.401Z,4.13
2023-02-19T13:12:11.668Z,6.53
2023-02-19T13:15:09.784Z,8.65
2023-02-19T13:17:57.227Z,7.38
2023-02-19T13:20:43.934Z,7.95
2023-02-19T13:23:54.293Z,9.15
2023-02-19T13:26:52.052Z,8.23
2023-02-19T13:29:37.563Z,8.02
2023-02-19T13:32:46.079Z,7.65
2023-02-19T13:35:56.575Z,6.90
2023-02-19T13:38:47.450Z,8.55
2023-02-19T13:41:50.352Z,5.78
2023-02-19T13:44:36.652Z,6.28
2023-02-19T13:47:50.251Z,11.75
2023-02-19T13:50:35.688Z,14.50
2023-02-19T13:53:46.179Z,3.83
2023-02-19T13:56:31.679Z,6.60
2023-02-19T13:59:35.980Z,4.97
2023-02-19T14:02:21.535Z,9.82
2023-02-19T14:05:10.160Z,8.13
2023-02-19T14:07:55.881Z,12.15
2023-02-19T14:10:57.871Z,10.13
2023-02-19T14:13:49.948Z,9.38
2023-02-19T14:16:37.779Z,5.85
2023-02-19T14:19:41.641Z,7.68
2023-02-19T14:22:45.812Z,9.32
2023-02-19T14:25:40.203Z,4.15
2023-02-19T14:28:44.624Z,5.13
2023-02-19T14:31:32.672Z,9.15
2023-02-19T14:37:16.430Z,6.55
2023-02-19T14:40:03.163Z,8.30
2023-02-19T14:42:49.912Z,7.28
2023-02-19T14:45:42.278Z,13.00
2023-02-19T14:48:38.446Z,7.78
2023-02-19T14:51:33.161Z,8.25
2023-02-19T14:54:48.543Z,8.63
2023-02-19T14:57:39.413Z,8.05
2023-02-19T15:00:27.926Z,8.02
2023-02-19T15:03:32.871Z,4.25
2023-02-19T15:06:20.239Z,10.63
2023-02-19T15:09:07.208Z,6.53
2023-02-19T15:11:54.022Z,4.93
2023-02-19T15:14:40.147Z,7.72
2023-02-19T15:17:29.009Z,7.53
2023-02-19T15:20:20.190Z,3.97
2023-02-19T15:23:06.711Z,4.82
2023-02-19T15:25:54.010Z,3.20
2023-02-19T15:28:39.181Z,2.58
2023-02-19T15:31:24.569Z,5.72
2023-02-19T15:34:18.912Z,6.18
2023-02-19T15:39:51.770Z,6.88
2023-02-19T15:42:38.229Z,5.85
2023-02-19T15:45:28.969Z,5.30
2023-02-19T15:48:20.578Z,4.47
2023-02-19T15:51:16.224Z,2.97
2023-02-19T15:54:28.730Z,4.22
2023-02-19T15:57:18.851Z,6.70
2023-02-19T16:00:19.170Z,6.90
2023-02-19T16:03:05.698Z,3.88
2023-02-19T16:06:01.676Z,6.22
2023-02-19T16:08:53.028Z,7.05
2023-02-19T16:11:53.085Z,6.53
2023-02-19T16:17:28.051Z,5.53
2023-02-19T16:20:42.603Z,7.10
2023-02-19T16:23:31.352Z,6.10
2023-02-19T16:26:17.908Z,7.72
2023-02-19T16:29:22.468Z,8.80
2023-02-19T16:32:16.106Z,12.98
2023-02-19T16:35:02.014Z,14.38
2023-02-19T16:38:25.500Z,14.35
2023-02-19T16:41:17.421Z,12.50
2023-02-19T16:44:30.074Z,13.40
2023-02-19T16:50:45.824Z,12.98
2023-02-19T16:54:06.294Z,12.23
2023-02-19T16:57:07.553Z,13.23
2023-02-19T16:59:54.709Z,10.40
2023-02-19T17:02:40.220Z,15.88
2023-02-19T17:05:32.884Z,18.77
2023-02-19T17:08:31.270Z,24.13
2023-02-19T17:11:21.839Z,26.10
2023-02-19T17:14:11.251Z,13.40
2023-02-19T17:17:02.117Z,34.83
2023-02-19T17:19:52.500Z,32.50
2023-02-19T17:22:38.394Z,27.38
2023-02-19T17:25:25.021Z,20.73
2023-02-19T17:28:16.718Z,13.77
2023-02-19T17:31:05.542Z,18.77
2023-02-19T17:33:52.407Z,17.45
2023-02-19T17:39:33.103Z,16.13
2023-02-19T17:42:32.186Z,9.90
2023-02-19T17:45:18.760Z,13.73
2023-02-19T17:48:05.589Z,19.23
2023-02-19T17:50:52.378Z,17.20
2023-02-19T17:53:38.223Z,14.73
2023-02-19T17:56:31.227Z,14.10
2023-02-19T17:59:18.335Z,17.90
2023-02-19T18:02:03.988Z,11.60
2023-02-19T18:04:54.634Z,16.02
2023-02-19T18:07:41.839Z,22.77
2023-02-19T18:10:27.744Z,20.60
2023-02-19T18:13:26.607Z,21.30
2023-02-19T18:16:15.798Z,21.20
2023-02-19T18:19:02.430Z,26.50
2023-02-19T18:21:48.305Z,21.42
2023-02-19T18:24:45.844Z,19.90
2023-02-19T18:27:31.521Z,23.65
2023-02-19T18:30:50.435Z,18.63
2023-02-19T18:33:45.150Z,20.15
2023-02-19T18:36:37.726Z,18.30
2023-02-19T18:39:23.980Z,18.55
2023-02-19T18:42:10.572Z,17.23
2023-02-19T18:45:09.702Z,22.48
2023-02-19T18:47:55.497Z,25.90
2023-02-19T18:50:42.410Z,20.20
2023-02-19T18:53:29.007Z,21.13
2023-02-19T18:56:17.112Z,31.80
2023-02-19T18:59:04.310Z,33.03
2023-02-19T19:01:51.312Z,54.17
2023-02-19T19:04:38.207Z,54.95
2023-02-19T19:07:23.747Z,43.55
2023-02-19T19:10:10.399Z,43.30
2023-02-19T19:12:56.040Z,51.10
2023-02-19T19:15:41.648Z,36.38
2023-02-19T19:18:28.073Z,23.98
2023-02-19T19:21:17.570Z,25.77
2023-02-19T19:24:02.851Z,15.30
2023-02-19T19:26:49.868Z,15.60
2023-02-19T19:29:35.838Z,21.00
2023-02-19T19:32:21.471Z,29.80
2023-02-19T19:35:07.835Z,33.40
2023-02-19T19:37:53.283Z,28.55
2023-02-19T19:40:38.571Z,20.38
2023-02-19T19:43:29.196Z,22.58
2023-02-19T19:46:19.121Z,24.15
2023-02-19T19:49:04.675Z,18.33
2023-02-19T19:51:50.011Z,16.58
2023-02-19T19:54:35.597Z,19.13
2023-02-19T19:57:21.488Z,18.02
2023-02-19T20:00:07.444Z,15.93
2023-02-19T20:02:58.378Z,21.50
2023-02-19T20:05:46.062Z,18.98
2023-02-19T20:08:31.604Z,17.92
2023-02-19T20:11:17.175Z,19.40
2023-02-19T20:14:02.543Z,24.95
2023-02-19T20:16:50.741Z,18.63
2023-02-19T20:19:37.191Z,24.02
2023-02-19T20:22:22.739Z,26.98
2023-02-19T20:25:15.936Z,27.20
2023-02-19T20:28:05.418Z,25.13
2023-02-19T20:30:51.121Z,25.20
2023-02-19T20:33:55.424Z,20.05
2023-02-19T20:36:45.512Z,24.83
2023-02-19T20:39:31.942Z,27.02
2023-02-19T20:42:19.036Z,19.33
2023-02-19T20:45:05.471Z,21.02
2023-02-19T20:47:51.241Z,27.40
2023-02-19T20:50:37.032Z,21.75
2023-02-19T20:53:22.395Z,23.27
2023-02-19T20:56:07.841Z,20.95
2023-02-19T20:59:04.173Z,23.17
2023-02-19T21:01:50.270Z,21.05
2023-02-19T21:04:37.740Z,19.42
2023-02-19T21:07:32.328Z,22.13
2023-02-19T21:10:18.444Z,20.27
2023-02-19T21:13:08.113Z,20.08
2023-02-19T21:15:54.746Z,16.00
2023-02-19T21:18:40.882Z,16.35
2023-02-19T21:21:26.682Z,12.45
2023-02-19T21:24:14.672Z,14.07
2023-02-19T21:27:00.329Z,17.23
2023-02-19T21:29:46.778Z,15.13
2023-02-19T21:32:32.557Z,13.20
2023-02-19T21:35:19.884Z,12.85
2023-02-19T21:38:24.659Z,18.70
2023-02-19T21:41:15.087Z,13.45
2023-02-19T21:44:03.974Z,16.55
2023-02-19T21:46:49.976Z,15.27
2023-02-19T21:49:35.588Z,14.20
2023-02-19T21:52:25.661Z,12.90
2023-02-19T21:55:11.254Z,14.95
2023-02-19T21:57:58.248Z,23.00
2023-02-19T22:00:45.224Z,20.20
2023-02-19T22:03:31.599Z,15.73
2023-02-19T22:06:17.918Z,16.60
2023-02-19T22:09:03.886Z,15.95
2023-02-19T22:11:49.538Z,21.50
2023-02-19T22:14:43.076Z,14.30
2023-02-19T22:17:28.600Z,17.73
2023-02-19T22:20:17.319Z,18.92
2023-02-19T22:23:03.263Z,14.75
2023-02-19T22:25:50.089Z,16.27
2023-02-19T22:28:35.630Z,16.67
2023-02-19T22:31:25.435Z,18.13
2023-02-19T22:34:10.743Z,18.02
2023-02-19T22:36:59.484Z,17.77
2023-02-19T22:39:45.797Z,19.10
2023-02-19T22:42:35.977Z,20.42
2023-02-19T22:45:21.677Z,21.20
2023-02-19T22:48:13.077Z,16.67
2023-02-19T22:51:04.117Z,17.60
2023-02-19T22:53:54.547Z,22.98
2023-02-19T22:56:40.531Z,13.30
2023-02-19T22:59:26.047Z,17.63
2023-02-19T23:02:12.025Z,18.80
2023-02-19T23:04:57.635Z,18.50
2023-02-19T23:07:46.403Z,17.88
2023-02-19T23:10:34.036Z,17.20
2023-02-19T23:13:22.091Z,16.48
2023-02-19T23:16:07.838Z,23.00
2023-02-19T23:18:53.395Z,19.00
2023-02-19T23:21:41.774Z,32.30
2023-02-19T23:24:27.178Z,28.27
2023-02-19T23:27:12.682Z,30.92
2023-02-19T23:29:58.553Z,27.65
2023-02-19T23:32:43.820Z,22.55
2023-02-19T23:35:30.839Z,34.35
2023-02-19T23:38:17.138Z,29.85
2023-02-19T23:41:03.124Z,31.88
2023-02-19T23:43:52.736Z,34.58
2023-02-19T23:46:44.305Z,34.70
2023-02-19T23:49:29.978Z,35.85
2023-02-19T23:52:17.797Z,26.58
2023-02-19T23:55:03.589Z,31.67
2023-02-19T23:57:49.104Z,30.88
